sensor_id;sensor_type;location;lat;lon;timestamp;P1;durP1;ratioP1;P2;durP2;ratioP2
77451;SDS011;66537;52.370;4.832;2023-03-01T00:01:02;23.80;;;11.48;;
77451;SDS011;66537;52.370;4.832;2023-03-01T00:03:47;31.27;;;16.35;;
77451;SDS011;66537;52.370;4.832;2023-03-01T00:06:12;35.60;;;19.52;;
77451;SDS011;66537;52.370;4.832;2023-03-01T00:08:38;32.42;;;18.98;;
77451;SDS011;66537;52.370;4.832;2023-03-01T00:11:05;46.42;;;27.10;;
77451;SDS011;66537;52.370;4.832;2023-03-01T00:13:33;49.17;;;27.40;;
77451;SDS011;66537;52.370;4.832;2023-03-01T00:16:03;38.40;;;23.63;;
77451;SDS011;66537;52.370;4.832;2023-03-01T00:18:33;49.30;;;27.23;;
77451;SDS011;66537;52.370;4.832;2023-03-01T00:20:58;49.47;;;30.10;;
77451;SDS011;66537;52.370;4.832;2023-03-01T00:23:24;58.13;;;35.53;;
77451;SDS011;66537;52.370;4.832;2023-03-01T00:25:50;54.30;;;34.88;;
77451;SDS011;66537;52.370;4.832;2023-03-01T00:28:16;57.03;;;37.13;;
77451;SDS011;66537;52.370;4.832;2023-03-01T00:30:42;57.25;;;35.13;;
77451;SDS011;66537;52.370;4.832;2023-03-01T00:33:08;59.83;;;37.58;;
77451;SDS011;66537;52.370;4.832;2023-03-01T00:35:33;56.45;;;35.83;;
77451;SDS011;66537;52.370;4.832;2023-03-01T00:37:59;72.90;;;38.38;;
77451;SDS011;66537;52.370;4.832;2023-03-01T00:40:25;55.58;;;34.33;;
77451;SDS011;66537;52.370;4.832;2023-03-01T00:42:52;50.50;;;31.70;;
77451;SDS011;66537;52.370;4.832;2023-03-01T00:45:18;51.95;;;31.33;;
77451;SDS011;66537;52.370;4.832;2023-03-01T00:47:43;49.70;;;31.70;;
77451;SDS011;66537;52.370;4.832;2023-03-01T00:50:09;48.88;;;30.58;;
77451;SDS011;66537;52.370;4.832;2023-03-01T00:52:35;51.65;;;31.38;;
77451;SDS011;66537;52.370;4.832;2023-03-01T00:55:01;54.88;;;32.85;;
77451;SDS011;66537;52.370;4.832;2023-03-01T00:57:26;48.25;;;30.38;;
77451;SDS011;66537;52.370;4.832;2023-03-01T00:59:52;53.10;;;31.53;;
77451;SDS011;66537;52.370;4.832;2023-03-01T01:02:18;55.42;;;35.15;;
77451;SDS011;66537;52.370;4.832;2023-03-01T01:04:44;56.58;;;36.20;;
77451;SDS011;66537;52.370;4.832;2023-03-01T01:07:10;57.33;;;37.35;;
77451;SDS011;66537;52.370;4.832;2023-03-01T01:09:36;61.22;;;36.95;;
77451;SDS011;66537;52.370;4.832;2023-03-01T01:12:01;60.88;;;37.00;;
77451;SDS011;66537;52.370;4.832;2023-03-01T01:14:27;62.97;;;36.65;;
77451;SDS011;66537;52.370;4.832;2023-03-01T01:16:53;56.13;;;34.10;;
77451;SDS011;66537;52.370;4.832;2023-03-01T01:19:19;56.75;;;33.60;;
77451;SDS011;66537;52.370;4.832;2023-03-01T01:21:44;56.92;;;32.65;;
77451;SDS011;66537;52.370;4.832;2023-03-01T01:24:10;47.95;;;28.15;;
77451;SDS011;66537;52.370;4.832;2023-03-01T01:26:36;40.30;;;23.85;;
77451;SDS011;66537;52.370;4.832;2023-03-01T01:29:02;35.53;;;19.63;;
77451;SDS011;66537;52.370;4.832;2023-03-01T01:31:29;35.65;;;20.70;;
77451;SDS011;66537;52.370;4.832;2023-03-01T01:33:55;34.83;;;18.30;;
77451;SDS011;66537;52.370;4.832;2023-03-01T01:36:21;34.45;;;18.50;;
77451;SDS011;66537;52.370;4.832;2023-03-01T01:38:47;32.97;;;18.77;;
77451;SDS011;66537;52.370;4.832;2023-03-01T01:41:13;30.20;;;15.82;;
77451;SDS011;66537;52.370;4.832;2023-03-01T01:43:49;33.42;;;18.20;;
77451;SDS011;66537;52.370;4.832;2023-03-01T01:46:35;36.13;;;17.77;;
77451;SDS011;66537;52.370;4.832;2023-03-01T01:49:05;32.50;;;18.40;;
77451;SDS011;66537;52.370;4.832;2023-03-01T01:51:35;32.10;;;17.52;;
77451;SDS011;66537;52.370;4.832;2023-03-01T01:54:06;32.47;;;17.73;;
77451;SDS011;66537;52.370;4.832;2023-03-01T01:56:37;31.58;;;17.80;;
77451;SDS011;66537;52.370;4.832;2023-03-01T01:59:07;29.25;;;15.43;;
77451;SDS011;66537;52.370;4.832;2023-03-01T02:01:34;26.25;;;13.20;;
77451;SDS011;66537;52.370;4.832;2023-03-01T02:03:59;25.52;;;12.85;;
77451;SDS011;66537;52.370;4.832;2023-03-01T02:06:29;27.38;;;14.65;;
77451;SDS011;66537;52.370;4.832;2023-03-01T02:09:05;29.35;;;14.30;;
77451;SDS011;66537;52.370;4.832;2023-03-01T02:11:36;26.85;;;13.30;;
77451;SDS011;66537;52.370;4.832;2023-03-01T02:14:02;27.58;;;12.93;;
77451;SDS011;66537;52.370;4.832;2023-03-01T02:16:28;28.80;;;13.32;;
77451;SDS011;66537;52.370;4.832;2023-03-01T02:18:55;25.83;;;13.90;;
77451;SDS011;66537;52.370;4.832;2023-03-01T02:24:32;27.23;;;12.68;;
77451;SDS011;66537;52.370;4.832;2023-03-01T02:27:00;30.25;;;13.77;;
77451;SDS011;66537;52.370;4.832;2023-03-01T02:29:25;26.95;;;13.68;;
77451;SDS011;66537;52.370;4.832;2023-03-01T02:31:53;26.02;;;13.88;;
77451;SDS011;66537;52.370;4.832;2023-03-01T02:34:22;25.10;;;12.63;;
77451;SDS011;66537;52.370;4.832;2023-03-01T02:39:36;29.83;;;13.82;;
77451;SDS011;66537;52.370;4.832;2023-03-01T02:42:07;25.02;;;14.05;;
77451;SDS011;66537;52.370;4.832;2023-03-01T02:44:35;24.92;;;13.27;;
77451;SDS011;66537;52.370;4.832;2023-03-01T02:47:01;26.48;;;13.80;;
77451;SDS011;66537;52.370;4.832;2023-03-01T02:49:33;25.45;;;12.45;;
77451;SDS011;66537;52.370;4.832;2023-03-01T02:54:43;26.10;;;13.15;;
77451;SDS011;66537;52.370;4.832;2023-03-01T02:57:15;23.52;;;12.05;;
77451;SDS011;66537;52.370;4.832;2023-03-01T02:59:41;23.77;;;12.15;;
77451;SDS011;66537;52.370;4.832;2023-03-01T03:02:17;23.65;;;11.35;;
77451;SDS011;66537;52.370;4.832;2023-03-01T03:04:47;28.60;;;15.55;;
77451;SDS011;66537;52.370;4.832;2023-03-01T03:07:12;27.20;;;14.50;;
77451;SDS011;66537;52.370;4.832;2023-03-01T03:09:37;26.25;;;13.05;;
77451;SDS011;66537;52.370;4.832;2023-03-01T03:12:03;22.63;;;12.33;;
77451;SDS011;66537;52.370;4.832;2023-03-01T03:14:28;27.17;;;14.15;;
77451;SDS011;66537;52.370;4.832;2023-03-01T03:16:54;28.85;;;14.23;;
77451;SDS011;66537;52.370;4.832;2023-03-01T03:19:19;28.33;;;14.37;;
77451;SDS011;66537;52.370;4.832;2023-03-01T03:21:45;27.63;;;13.70;;
77451;SDS011;66537;52.370;4.832;2023-03-01T03:24:11;24.35;;;12.98;;
77451;SDS011;66537;52.370;4.832;2023-03-01T03:26:36;25.13;;;13.30;;
77451;SDS011;66537;52.370;4.832;2023-03-01T03:29:02;24.88;;;13.20;;
77451;SDS011;66537;52.370;4.832;2023-03-01T03:31:27;26.85;;;14.10;;
77451;SDS011;66537;52.370;4.832;2023-03-01T03:33:53;27.60;;;14.32;;
77451;SDS011;66537;52.370;4.832;2023-03-01T03:36:20;26.65;;;14.73;;
77451;SDS011;66537;52.370;4.832;2023-03-01T03:38:47;30.45;;;13.35;;
77451;SDS011;66537;52.370;4.832;2023-03-01T03:41:13;26.50;;;13.48;;
77451;SDS011;66537;52.370;4.832;2023-03-01T03:43:40;26.13;;;14.63;;
77451;SDS011;66537;52.370;4.832;2023-03-01T03:46:07;26.98;;;14.18;;
77451;SDS011;66537;52.370;4.832;2023-03-01T03:48:39;29.08;;;13.95;;
77451;SDS011;66537;52.370;4.832;2023-03-01T03:51:06;27.40;;;13.45;;
77451;SDS011;66537;52.370;4.832;2023-03-01T03:53:34;25.73;;;13.63;;
77451;SDS011;66537;52.370;4.832;2023-03-01T03:55:59;27.23;;;14.37;;
77451;SDS011;66537;52.370;4.832;2023-03-01T03:58:25;28.67;;;15.00;;
77451;SDS011;66537;52.370;4.832;2023-03-01T04:00:52;26.77;;;13.95;;
77451;SDS011;66537;52.370;4.832;2023-03-01T04:03:20;34.22;;;17.08;;
77451;SDS011;66537;52.370;4.832;2023-03-01T04:05:47;32.85;;;16.23;;
77451;SDS011;66537;52.370;4.832;2023-03-01T04:08:15;28.17;;;16.25;;
77451;SDS011;66537;52.370;4.832;2023-03-01T04:10:43;27.88;;;14.38;;
77451;SDS011;66537;52.370;4.832;2023-03-01T04:13:13;27.35;;;15.27;;
77451;SDS011;66537;52.370;4.832;2023-03-01T04:15:41;28.52;;;15.60;;
77451;SDS011;66537;52.370;4.832;2023-03-01T04:18:08;30.50;;;15.30;;
77451;SDS011;66537;52.370;4.832;2023-03-01T04:20:36;32.80;;;16.90;;
77451;SDS011;66537;52.370;4.832;2023-03-01T04:23:03;31.52;;;15.52;;
77451;SDS011;66537;52.370;4.832;2023-03-01T04:25:48;27.58;;;14.35;;
77451;SDS011;66537;52.370;4.832;2023-03-01T04:28:24;30.80;;;15.35;;
77451;SDS011;66537;52.370;4.832;2023-03-01T04:30:51;30.95;;;16.33;;
77451;SDS011;66537;52.370;4.832;2023-03-01T04:33:17;31.55;;;15.02;;
77451;SDS011;66537;52.370;4.832;2023-03-01T04:35:43;27.42;;;15.82;;
77451;SDS011;66537;52.370;4.832;2023-03-01T04:38:08;29.48;;;15.10;;
77451;SDS011;66537;52.370;4.832;2023-03-01T04:40:34;22.92;;;12.63;;
77451;SDS011;66537;52.370;4.832;2023-03-01T04:43:00;33.22;;;14.90;;
77451;SDS011;66537;52.370;4.832;2023-03-01T04:45:25;25.67;;;13.82;;
77451;SDS011;66537;52.370;4.832;2023-03-01T04:47:51;28.30;;;14.35;;
77451;SDS011;66537;52.370;4.832;2023-03-01T04:50:19;24.90;;;13.82;;
77451;SDS011;66537;52.370;4.832;2023-03-01T04:52:45;26.73;;;14.02;;
77451;SDS011;66537;52.370;4.832;2023-03-01T04:55:11;25.13;;;13.32;;
77451;SDS011;66537;52.370;4.832;2023-03-01T04:57:36;23.23;;;12.90;;
77451;SDS011;66537;52.370;4.832;2023-03-01T05:00:03;25.00;;;13.60;;
77451;SDS011;66537;52.370;4.832;2023-03-01T05:02:45;24.38;;;14.15;;
77451;SDS011;66537;52.370;4.832;2023-03-01T05:05:18;24.30;;;13.60;;
77451;SDS011;66537;52.370;4.832;2023-03-01T05:07:57;26.60;;;13.70;;
77451;SDS011;66537;52.370;4.832;2023-03-01T05:10:25;27.13;;;14.02;;
77451;SDS011;66537;52.370;4.832;2023-03-01T05:12:51;25.25;;;14.32;;
77451;SDS011;66537;52.370;4.832;2023-03-01T05:15:18;29.33;;;15.35;;
77451;SDS011;66537;52.370;4.832;2023-03-01T05:17:43;27.10;;;14.15;;
77451;SDS011;66537;52.370;4.832;2023-03-01T05:20:09;26.02;;;13.98;;
77451;SDS011;66537;52.370;4.832;2023-03-01T05:22:35;27.17;;;14.25;;
77451;SDS011;66537;52.370;4.832;2023-03-01T05:25:01;25.98;;;13.60;;
77451;SDS011;66537;52.370;4.832;2023-03-01T05:27:27;29.80;;;14.48;;
77451;SDS011;66537;52.370;4.832;2023-03-01T05:29:52;25.70;;;13.73;;
77451;SDS011;66537;52.370;4.832;2023-03-01T05:32:18;24.70;;;12.97;;
77451;SDS011;66537;52.370;4.832;2023-03-01T05:34:43;25.50;;;13.50;;
77451;SDS011;66537;52.370;4.832;2023-03-01T05:37:11;28.42;;;14.57;;
77451;SDS011;66537;52.370;4.832;2023-03-01T05:39:37;28.13;;;13.80;;
77451;SDS011;66537;52.370;4.832;2023-03-01T05:42:02;30.30;;;14.32;;
77451;SDS011;66537;52.370;4.832;2023-03-01T05:44:28;26.98;;;13.45;;
77451;SDS011;66537;52.370;4.832;2023-03-01T05:46:54;29.42;;;15.25;;
77451;SDS011;66537;52.370;4.832;2023-03-01T05:49:20;24.13;;;13.25;;
77451;SDS011;66537;52.370;4.832;2023-03-01T05:51:49;24.98;;;13.90;;
77451;SDS011;66537;52.370;4.832;2023-03-01T05:54:16;24.90;;;12.18;;
77451;SDS011;66537;52.370;4.832;2023-03-01T05:56:43;24.48;;;12.32;;
77451;SDS011;66537;52.370;4.832;2023-03-01T05:59:09;26.08;;;14.18;;
77451;SDS011;66537;52.370;4.832;2023-03-01T06:01:35;27.17;;;13.88;;
77451;SDS011;66537;52.370;4.832;2023-03-01T06:04:01;27.05;;;12.73;;
77451;SDS011;66537;52.370;4.832;2023-03-01T06:06:27;27.48;;;13.55;;
77451;SDS011;66537;52.370;4.832;2023-03-01T06:08:53;27.25;;;12.82;;
77451;SDS011;66537;52.370;4.832;2023-03-01T06:11:18;26.27;;;12.13;;
77451;SDS011;66537;52.370;4.832;2023-03-01T06:13:45;24.27;;;12.70;;
77451;SDS011;66537;52.370;4.832;2023-03-01T06:16:11;26.45;;;13.20;;
77451;SDS011;66537;52.370;4.832;2023-03-01T06:18:37;28.27;;;12.98;;
77451;SDS011;66537;52.370;4.832;2023-03-01T06:21:03;23.20;;;12.50;;
77451;SDS011;66537;52.370;4.832;2023-03-01T06:23:28;25.85;;;13.88;;
77451;SDS011;66537;52.370;4.832;2023-03-01T06:25:54;22.65;;;12.13;;
77451;SDS011;66537;52.370;4.832;2023-03-01T06:28:19;25.58;;;13.35;;
77451;SDS011;66537;52.370;4.832;2023-03-01T06:30:45;26.13;;;13.75;;
77451;SDS011;66537;52.370;4.832;2023-03-01T06:33:11;26.83;;;13.55;;
77451;SDS011;66537;52.370;4.832;2023-03-01T06:35:36;37.78;;;17.15;;
77451;SDS011;66537;52.370;4.832;2023-03-01T06:38:02;31.63;;;15.13;;
77451;SDS011;66537;52.370;4.832;2023-03-01T06:40:29;32.33;;;16.27;;
77451;SDS011;66537;52.370;4.832;2023-03-01T06:42:56;29.40;;;15.50;;
77451;SDS011;66537;52.370;4.832;2023-03-01T06:45:21;29.98;;;13.90;;
77451;SDS011;66537;52.370;4.832;2023-03-01T06:47:46;30.30;;;13.88;;
77451;SDS011;66537;52.370;4.832;2023-03-01T06:50:12;28.58;;;14.45;;
77451;SDS011;66537;52.370;4.832;2023-03-01T06:52:39;32.30;;;15.38;;
77451;SDS011;66537;52.370;4.832;2023-03-01T06:55:05;44.35;;;15.38;;
77451;SDS011;66537;52.370;4.832;2023-03-01T06:57:31;36.60;;;14.98;;
77451;SDS011;66537;52.370;4.832;2023-03-01T06:59:56;39.67;;;15.00;;
77451;SDS011;66537;52.370;4.832;2023-03-01T07:02:22;39.83;;;16.85;;
77451;SDS011;66537;52.370;4.832;2023-03-01T07:04:50;37.60;;;15.98;;
77451;SDS011;66537;52.370;4.832;2023-03-01T07:07:16;53.20;;;16.50;;
77451;SDS011;66537;52.370;4.832;2023-03-01T07:09:43;64.15;;;17.70;;
77451;SDS011;66537;52.370;4.832;2023-03-01T07:12:09;42.97;;;18.58;;
77451;SDS011;66537;52.370;4.832;2023-03-01T07:14:34;49.40;;;18.73;;
77451;SDS011;66537;52.370;4.832;2023-03-01T07:17:00;41.35;;;16.00;;
77451;SDS011;66537;52.370;4.832;2023-03-01T07:19:25;44.63;;;15.53;;
77451;SDS011;66537;52.370;4.832;2023-03-01T07:21:50;52.97;;;17.02;;
77451;SDS011;66537;52.370;4.832;2023-03-01T07:24:16;61.15;;;16.40;;
77451;SDS011;66537;52.370;4.832;2023-03-01T07:26:41;40.00;;;16.88;;
77451;SDS011;66537;52.370;4.832;2023-03-01T07:29:07;87.30;;;19.02;;
77451;SDS011;66537;52.370;4.832;2023-03-01T07:31:35;76.80;;;17.23;;
77451;SDS011;66537;52.370;4.832;2023-03-01T07:34:00;54.20;;;14.80;;
77451;SDS011;66537;52.370;4.832;2023-03-01T07:36:26;38.35;;;15.02;;
77451;SDS011;66537;52.370;4.832;2023-03-01T07:38:51;36.28;;;13.77;;
77451;SDS011;66537;52.370;4.832;2023-03-01T07:41:17;50.33;;;14.75;;
77451;SDS011;66537;52.370;4.832;2023-03-01T07:43:42;47.65;;;13.93;;
77451;SDS011;66537;52.370;4.832;2023-03-01T07:46:08;30.27;;;13.17;;
77451;SDS011;66537;52.370;4.832;2023-03-01T07:48:34;38.78;;;13.80;;
77451;SDS011;66537;52.370;4.832;2023-03-01T07:51:00;37.45;;;14.43;;
77451;SDS011;66537;52.370;4.832;2023-03-01T07:53:26;28.05;;;12.77;;
77451;SDS011;66537;52.370;4.832;2023-03-01T07:56:01;34.42;;;12.80;;
77451;SDS011;66537;52.370;4.832;2023-03-01T07:58:31;25.70;;;12.10;;
77451;SDS011;66537;52.370;4.832;2023-03-01T08:01:00;24.42;;;12.90;;
77451;SDS011;66537;52.370;4.832;2023-03-01T08:03:30;26.02;;;12.57;;
77451;SDS011;66537;52.370;4.832;2023-03-01T08:05:55;32.33;;;13.43;;
77451;SDS011;66537;52.370;4.832;2023-03-01T08:08:21;26.52;;;11.65;;
77451;SDS011;66537;52.370;4.832;2023-03-01T08:10:46;23.48;;;13.05;;
77451;SDS011;66537;52.370;4.832;2023-03-01T08:13:12;35.28;;;15.35;;
77451;SDS011;66537;52.370;4.832;2023-03-01T08:15:37;33.30;;;15.35;;
77451;SDS011;66537;52.370;4.832;2023-03-01T08:18:02;40.67;;;16.43;;
77451;SDS011;66537;52.370;4.832;2023-03-01T08:20:28;39.72;;;16.63;;
77451;SDS011;66537;52.370;4.832;2023-03-01T08:22:53;30.45;;;15.88;;
77451;SDS011;66537;52.370;4.832;2023-03-01T08:25:18;33.50;;;17.20;;
77451;SDS011;66537;52.370;4.832;2023-03-01T08:27:44;38.88;;;17.15;;
77451;SDS011;66537;52.370;4.832;2023-03-01T08:30:09;37.95;;;18.77;;
77451;SDS011;66537;52.370;4.832;2023-03-01T08:32:39;42.05;;;18.58;;
77451;SDS011;66537;52.370;4.832;2023-03-01T08:35:04;44.67;;;18.05;;
77451;SDS011;66537;52.370;4.832;2023-03-01T08:37:30;41.45;;;18.88;;
77451;SDS011;66537;52.370;4.832;2023-03-01T08:39:58;49.13;;;19.42;;
77451;SDS011;66537;52.370;4.832;2023-03-01T08:42:24;40.95;;;18.23;;
77451;SDS011;66537;52.370;4.832;2023-03-01T08:44:50;40.97;;;19.40;;
77451;SDS011;66537;52.370;4.832;2023-03-01T08:47:15;45.60;;;16.83;;
77451;SDS011;66537;52.370;4.832;2023-03-01T08:49:40;52.95;;;18.35;;
77451;SDS011;66537;52.370;4.832;2023-03-01T08:52:06;46.10;;;19.03;;
77451;SDS011;66537;52.370;4.832;2023-03-01T08:54:31;38.90;;;17.53;;
77451;SDS011;66537;52.370;4.832;2023-03-01T08:56:57;33.88;;;16.08;;
77451;SDS011;66537;52.370;4.832;2023-03-01T08:59:24;31.48;;;15.23;;
77451;SDS011;66537;52.370;4.832;2023-03-01T09:01:50;36.33;;;15.63;;
77451;SDS011;66537;52.370;4.832;2023-03-01T09:04:15;39.22;;;16.02;;
77451;SDS011;66537;52.370;4.832;2023-03-01T09:06:41;35.00;;;15.98;;
77451;SDS011;66537;52.370;4.832;2023-03-01T09:09:10;40.28;;;16.45;;
77451;SDS011;66537;52.370;4.832;2023-03-01T09:11:40;49.08;;;17.23;;
77451;SDS011;66537;52.370;4.832;2023-03-01T09:14:05;40.03;;;16.20;;
77451;SDS011;66537;52.370;4.832;2023-03-01T09:16:31;28.77;;;14.95;;
77451;SDS011;66537;52.370;4.832;2023-03-01T09:19:00;31.77;;;14.88;;
77451;SDS011;66537;52.370;4.832;2023-03-01T09:21:26;46.40;;;16.52;;
77451;SDS011;66537;52.370;4.832;2023-03-01T09:23:52;32.65;;;15.40;;
77451;SDS011;66537;52.370;4.832;2023-03-01T09:26:21;31.83;;;15.60;;
77451;SDS011;66537;52.370;4.832;2023-03-01T09:28:48;30.20;;;15.43;;
77451;SDS011;66537;52.370;4.832;2023-03-01T09:31:16;30.92;;;15.13;;
77451;SDS011;66537;52.370;4.832;2023-03-01T09:33:42;30.15;;;15.30;;
77451;SDS011;66537;52.370;4.832;2023-03-01T09:36:14;28.30;;;14.70;;
77451;SDS011;66537;52.370;4.832;2023-03-01T09:38:42;28.35;;;14.77;;
77451;SDS011;66537;52.370;4.832;2023-03-01T09:46:53;26.60;;;12.75;;
77451;SDS011;66537;52.370;4.832;2023-03-01T09:49:20;26.27;;;13.48;;
77451;SDS011;66537;52.370;4.832;2023-03-01T09:51:54;21.58;;;12.80;;
77451;SDS011;66537;52.370;4.832;2023-03-01T09:54:22;21.85;;;12.75;;
77451;SDS011;66537;52.370;4.832;2023-03-01T09:57:01;21.42;;;13.43;;
77451;SDS011;66537;52.370;4.832;2023-03-01T10:05:12;25.63;;;12.63;;
77451;SDS011;66537;52.370;4.832;2023-03-01T10:10:28;27.27;;;13.98;;
77451;SDS011;66537;52.370;4.832;2023-03-01T10:13:00;26.33;;;13.82;;
77451;SDS011;66537;52.370;4.832;2023-03-01T10:15:36;25.90;;;12.82;;
77451;SDS011;66537;52.370;4.832;2023-03-01T10:18:18;27.65;;;14.80;;
77451;SDS011;66537;52.370;4.832;2023-03-01T10:20:51;21.08;;;11.38;;
77451;SDS011;66537;52.370;4.832;2023-03-01T10:23:20;20.27;;;11.30;;
77451;SDS011;66537;52.370;4.832;2023-03-01T10:25:56;15.63;;;9.38;;
77451;SDS011;66537;52.370;4.832;2023-03-01T10:28:46;14.13;;;8.02;;
77451;SDS011;66537;52.370;4.832;2023-03-01T10:31:27;12.93;;;8.15;;
77451;SDS011;66537;52.370;4.832;2023-03-01T10:34:08;12.90;;;7.75;;
77451;SDS011;66537;52.370;4.832;2023-03-01T10:36:56;11.70;;;6.93;;
77451;SDS011;66537;52.370;4.832;2023-03-01T10:39:26;11.80;;;7.50;;
77451;SDS011;66537;52.370;4.832;2023-03-01T10:41:56;12.88;;;7.38;;
77451;SDS011;66537;52.370;4.832;2023-03-01T10:44:37;12.70;;;7.47;;
77451;SDS011;66537;52.370;4.832;2023-03-01T10:47:04;11.82;;;7.30;;
77451;SDS011;66537;52.370;4.832;2023-03-01T10:49:30;13.25;;;7.20;;
77451;SDS011;66537;52.370;4.832;2023-03-01T10:51:56;10.70;;;7.00;;
77451;SDS011;66537;52.370;4.832;2023-03-01T10:54:43;11.75;;;7.05;;
77451;SDS011;66537;52.370;4.832;2023-03-01T10:57:28;13.52;;;7.72;;
77451;SDS011;66537;52.370;4.832;2023-03-01T11:00:00;14.50;;;7.95;;
77451;SDS011;66537;52.370;4.832;2023-03-01T11:02:40;12.88;;;7.00;;
77451;SDS011;66537;52.370;4.832;2023-03-01T11:05:22;11.70;;;7.60;;
77451;SDS011;66537;52.370;4.832;2023-03-01T11:07:50;19.25;;;8.45;;
77451;SDS011;66537;52.370;4.832;2023-03-01T11:10:29;13.55;;;8.13;;
77451;SDS011;66537;52.370;4.832;2023-03-01T11:13:07;13.90;;;8.57;;
77451;SDS011;66537;52.370;4.832;2023-03-01T11:15:33;16.17;;;9.57;;
77451;SDS011;66537;52.370;4.832;2023-03-01T11:17:58;17.67;;;9.20;;
77451;SDS011;66537;52.370;4.832;2023-03-01T11:23:01;16.17;;;8.40;;
77451;SDS011;66537;52.370;4.832;2023-03-01T11:25:32;12.85;;;7.95;;
77451;SDS011;66537;52.370;4.832;2023-03-01T11:28:05;14.73;;;8.57;;
77451;SDS011;66537;52.370;4.832;2023-03-01T11:30:40;13.45;;;7.45;;
77451;SDS011;66537;52.370;4.832;2023-03-01T11:33:24;11.88;;;6.88;;
77451;SDS011;66537;52.370;4.832;2023-03-01T11:38:57;12.38;;;6.13;;
77451;SDS011;66537;52.370;4.832;2023-03-01T11:41:48;10.98;;;6.15;;
77451;SDS011;66537;52.370;4.832;2023-03-01T11:44:19;10.55;;;6.57;;
77451;SDS011;66537;52.370;4.832;2023-03-01T11:52:22;15.43;;;7.18;;
77451;SDS011;66537;52.370;4.832;2023-03-01T12:16:35;16.13;;;8.60;;
77451;SDS011;66537;52.370;4.832;2023-03-01T12:31:05;14.07;;;7.55;;
77451;SDS011;66537;52.370;4.832;2023-03-01T12:39:00;11.55;;;5.43;;
77451;SDS011;66537;52.370;4.832;2023-03-01T12:41:38;13.18;;;7.32;;
77451;SDS011;66537;52.370;4.832;2023-03-01T12:44:28;14.10;;;7.03;;
77451;SDS011;66537;52.370;4.832;2023-03-01T12:50:10;13.73;;;6.38;;
77451;SDS011;66537;52.370;4.832;2023-03-01T13:00:45;14.32;;;6.25;;
77451;SDS011;66537;52.370;4.832;2023-03-01T13:03:44;14.55;;;6.57;;
77451;SDS011;66537;52.370;4.832;2023-03-01T13:28:38;12.90;;;6.55;;
77451;SDS011;66537;52.370;4.832;2023-03-01T13:31:09;13.98;;;6.50;;
77451;SDS011;66537;52.370;4.832;2023-03-01T13:33:49;14.57;;;7.35;;
77451;SDS011;66537;52.370;4.832;2023-03-01T13:37:03;14.88;;;7.90;;
77451;SDS011;66537;52.370;4.832;2023-03-01T13:39:38;13.98;;;6.88;;
77451;SDS011;66537;52.370;4.832;2023-03-01T13:42:03;15.40;;;7.78;;
77451;SDS011;66537;52.370;4.832;2023-03-01T13:44:48;15.93;;;6.93;;
77451;SDS011;66537;52.370;4.832;2023-03-01T13:47:15;16.02;;;7.60;;
77451;SDS011;66537;52.370;4.832;2023-03-01T13:49:49;14.93;;;7.35;;
77451;SDS011;66537;52.370;4.832;2023-03-01T13:52:30;14.32;;;6.97;;
77451;SDS011;66537;52.370;4.832;2023-03-01T13:55:16;14.50;;;7.22;;
77451;SDS011;66537;52.370;4.832;2023-03-01T13:57:46;12.45;;;6.55;;
77451;SDS011;66537;52.370;4.832;2023-03-01T14:05:31;13.52;;;7.13;;
77451;SDS011;66537;52.370;4.832;2023-03-01T14:07:57;15.45;;;7.60;;
77451;SDS011;66537;52.370;4.832;2023-03-01T14:10:22;14.02;;;6.30;;
77451;SDS011;66537;52.370;4.832;2023-03-01T14:24:28;18.67;;;8.40;;
77451;SDS011;66537;52.370;4.832;2023-03-01T14:26:57;14.35;;;7.63;;
77451;SDS011;66537;52.370;4.832;2023-03-01T14:29:23;15.50;;;7.70;;
77451;SDS011;66537;52.370;4.832;2023-03-01T14:32:08;15.65;;;8.00;;
77451;SDS011;66537;52.370;4.832;2023-03-01T14:34:44;16.83;;;7.15;;
77451;SDS011;66537;52.370;4.832;2023-03-01T14:37:17;16.17;;;7.38;;
77451;SDS011;66537;52.370;4.832;2023-03-01T14:39:49;13.82;;;6.45;;
77451;SDS011;66537;52.370;4.832;2023-03-01T14:42:15;14.38;;;6.95;;
77451;SDS011;66537;52.370;4.832;2023-03-01T14:44:42;12.57;;;6.28;;
77451;SDS011;66537;52.370;4.832;2023-03-01T14:47:11;12.95;;;7.00;;
77451;SDS011;66537;52.370;4.832;2023-03-01T14:49:39;11.38;;;6.00;;
77451;SDS011;66537;52.370;4.832;2023-03-01T14:52:07;11.57;;;5.63;;
77451;SDS011;66537;52.370;4.832;2023-03-01T14:54:49;11.73;;;6.55;;
77451;SDS011;66537;52.370;4.832;2023-03-01T14:57:21;10.27;;;5.68;;
77451;SDS011;66537;52.370;4.832;2023-03-01T14:59:49;12.35;;;5.32;;
77451;SDS011;66537;52.370;4.832;2023-03-01T15:02:18;11.38;;;5.13;;
77451;SDS011;66537;52.370;4.832;2023-03-01T15:04:46;8.88;;;4.68;;
77451;SDS011;66537;52.370;4.832;2023-03-01T15:07:16;9.73;;;4.90;;
77451;SDS011;66537;52.370;4.832;2023-03-01T15:09:42;10.48;;;4.93;;
77451;SDS011;66537;52.370;4.832;2023-03-01T15:14:52;8.20;;;4.13;;
77451;SDS011;66537;52.370;4.832;2023-03-01T15:17:39;9.07;;;4.65;;
77451;SDS011;66537;52.370;4.832;2023-03-01T15:20:04;10.48;;;5.10;;
77451;SDS011;66537;52.370;4.832;2023-03-01T15:22:32;8.45;;;4.00;;
77451;SDS011;66537;52.370;4.832;2023-03-01T15:24:57;10.60;;;4.72;;
77451;SDS011;66537;52.370;4.832;2023-03-01T15:27:23;8.98;;;4.25;;
77451;SDS011;66537;52.370;4.832;2023-03-01T15:29:57;9.07;;;4.18;;
77451;SDS011;66537;52.370;4.832;2023-03-01T15:32:28;9.90;;;3.90;;
77451;SDS011;66537;52.370;4.832;2023-03-01T15:34:59;8.13;;;4.07;;
77451;SDS011;66537;52.370;4.832;2023-03-01T15:37:46;10.13;;;4.53;;
77451;SDS011;66537;52.370;4.832;2023-03-01T15:42:45;8.43;;;4.15;;
77451;SDS011;66537;52.370;4.832;2023-03-01T15:47:38;10.25;;;4.63;;
77451;SDS011;66537;52.370;4.832;2023-03-01T15:50:05;10.68;;;4.68;;
77451;SDS011;66537;52.370;4.832;2023-03-01T15:52:41;8.52;;;4.13;;
77451;SDS011;66537;52.370;4.832;2023-03-01T15:57:45;9.45;;;4.10;;
77451;SDS011;66537;52.370;4.832;2023-03-01T16:00:11;8.20;;;3.97;;
77451;SDS011;66537;52.370;4.832;2023-03-01T16:02:38;10.32;;;4.18;;
77451;SDS011;66537;52.370;4.832;2023-03-01T16:05:04;9.38;;;4.88;;
77451;SDS011;66537;52.370;4.832;2023-03-01T16:07:30;9.93;;;4.32;;
77451;SDS011;66537;52.370;4.832;2023-03-01T16:09:56;8.68;;;4.22;;
77451;SDS011;66537;52.370;4.832;2023-03-01T16:12:21;9.52;;;4.15;;
77451;SDS011;66537;52.370;4.832;2023-03-01T16:14:47;8.13;;;3.70;;
77451;SDS011;66537;52.370;4.832;2023-03-01T16:17:13;9.32;;;4.25;;
77451;SDS011;66537;52.370;4.832;2023-03-01T16:19:39;10.52;;;3.92;;
77451;SDS011;66537;52.370;4.832;2023-03-01T16:22:06;8.48;;;4.30;;
77451;SDS011;66537;52.370;4.832;2023-03-01T16:24:32;10.43;;;4.28;;
77451;SDS011;66537;52.370;4.832;2023-03-01T16:26:57;9.05;;;4.18;;
77451;SDS011;66537;52.370;4.832;2023-03-01T16:29:23;8.77;;;4.22;;
77451;SDS011;66537;52.370;4.832;2023-03-01T16:31:48;9.52;;;4.50;;
77451;SDS011;66537;52.370;4.832;2023-03-01T16:34:14;8.82;;;3.97;;
77451;SDS011;66537;52.370;4.832;2023-03-01T16:36:39;7.20;;;3.85;;
77451;SDS011;66537;52.370;4.832;2023-03-01T16:39:08;8.25;;;3.83;;
77451;SDS011;66537;52.370;4.832;2023-03-01T16:41:34;9.18;;;4.80;;
77451;SDS011;66537;52.370;4.832;2023-03-01T16:43:59;10.00;;;4.78;;
77451;SDS011;66537;52.370;4.832;2023-03-01T16:46:26;9.63;;;4.47;;
77451;SDS011;66537;52.370;4.832;2023-03-01T16:48:52;9.32;;;4.60;;